sensor_id;sensor_type;location;lat;lon;timestamp;temperature;humidity
36352;DHT22;22382;44.768;17.206;2022-07-23T00:00:20;22.80;94.80
36352;DHT22;22382;44.768;17.206;2022-07-23T00:02:47;22.90;94.50
36352;DHT22;22382;44.768;17.206;2022-07-23T00:05:15;22.80;94.40
36352;DHT22;22382;44.768;17.206;2022-07-23T00:07:42;22.80;94.10
36352;DHT22;22382;44.768;17.206;2022-07-23T00:10:09;22.80;94.10
36352;DHT22;22382;44.768;17.206;2022-07-23T00:12:37;22.70;94.40
36352;DHT22;22382;44.768;17.206;2022-07-23T00:15:17;22.70;94.70
36352;DHT22;22382;44.768;17.206;2022-07-23T00:17:45;22.70;95.40
36352;DHT22;22382;44.768;17.206;2022-07-23T00:20:12;22.60;95.70
36352;DHT22;22382;44.768;17.206;2022-07-23T00:22:50;22.60;97.00
36352;DHT22;22382;44.768;17.206;2022-07-23T00:25:18;22.60;97.20
36352;DHT22;22382;44.768;17.206;2022-07-23T00:27:56;22.60;96.90
36352;DHT22;22382;44.768;17.206;2022-07-23T00:30:23;22.50;96.40
36352;DHT22;22382;44.768;17.206;2022-07-23T00:32:57;22.50;96.60
36352;DHT22;22382;44.768;17.206;2022-07-23T00:35:25;22.40;96.90
36352;DHT22;22382;44.768;17.206;2022-07-23T00:37:53;22.40;97.20
36352;DHT22;22382;44.768;17.206;2022-07-23T00:40:21;22.30;97.30
36352;DHT22;22382;44.768;17.206;2022-07-23T00:42:48;22.30;98.20
36352;DHT22;22382;44.768;17.206;2022-07-23T00:45:15;22.30;99.00
36352;DHT22;22382;44.768;17.206;2022-07-23T00:47:42;22.30;98.00
36352;DHT22;22382;44.768;17.206;2022-07-23T00:50:10;22.30;97.90
36352;DHT22;22382;44.768;17.206;2022-07-23T00:52:38;22.30;98.30
36352;DHT22;22382;44.768;17.206;2022-07-23T00:55:06;22.20;98.20
36352;DHT22;22382;44.768;17.206;2022-07-23T00:57:34;22.20;98.30
36352;DHT22;22382;44.768;17.206;2022-07-23T01:00:01;22.20;98.60
36352;DHT22;22382;44.768;17.206;2022-07-23T01:02:29;22.10;98.70
36352;DHT22;22382;44.768;17.206;2022-07-23T01:04:56;22.20;98.70
36352;DHT22;22382;44.768;17.206;2022-07-23T01:07:23;22.10;98.60
36352;DHT22;22382;44.768;17.206;2022-07-23T01:09:51;22.10;98.50
36352;DHT22;22382;44.768;17.206;2022-07-23T01:12:19;22.10;98.80
36352;DHT22;22382;44.768;17.206;2022-07-23T01:14:56;22.10;98.90
36352;DHT22;22382;44.768;17.206;2022-07-23T01:17:24;22.00;98.90
36352;DHT22;22382;44.768;17.206;2022-07-23T01:19:51;22.00;99.00
36352;DHT22;22382;44.768;17.206;2022-07-23T01:22:20;22.00;99.30
36352;DHT22;22382;44.768;17.206;2022-07-23T01:24:48;21.90;99.50
36352;DHT22;22382;44.768;17.206;2022-07-23T01:27:15;21.90;99.60
36352;DHT22;22382;44.768;17.206;2022-07-23T01:29:44;21.90;99.90
36352;DHT22;22382;44.768;17.206;2022-07-23T01:32:11;21.90;99.90
36352;DHT22;22382;44.768;17.206;2022-07-23T01:34:38;21.80;99.90
36352;DHT22;22382;44.768;17.206;2022-07-23T01:37:07;21.80;99.90
36352;DHT22;22382;44.768;17.206;2022-07-23T01:39:34;21.80;99.90
36352;DHT22;22382;44.768;17.206;2022-07-23T01:42:01;21.70;99.90
36352;DHT22;22382;44.768;17.206;2022-07-23T01:44:28;21.70;99.90
36352;DHT22;22382;44.768;17.206;2022-07-23T01:46:56;21.70;99.90
36352;DHT22;22382;44.768;17.206;2022-07-23T01:49:23;21.70;99.90
36352;DHT22;22382;44.768;17.206;2022-07-23T01:51:50;21.70;99.90
36352;DHT22;22382;44.768;17.206;2022-07-23T01:54:31;21.60;99.90
36352;DHT22;22382;44.768;17.206;2022-07-23T01:56:59;21.60;99.90
36352;DHT22;22382;44.768;17.206;2022-07-23T01:59:27;21.60;99.90
36352;DHT22;22382;44.768;17.206;2022-07-23T02:01:54;21.60;99.90
36352;DHT22;22382;44.768;17.206;2022-07-23T02:04:23;21.50;99.90
36352;DHT22;22382;44.768;17.206;2022-07-23T02:06:51;21.50;99.90
36352;DHT22;22382;44.768;17.206;2022-07-23T02:09:19;21.40;99.90
36352;DHT22;22382;44.768;17.206;2022-07-23T02:11:46;21.30;99.90
36352;DHT22;22382;44.768;17.206;2022-07-23T02:14:13;21.40;99.90
36352;DHT22;22382;44.768;17.206;2022-07-23T02:16:40;21.40;99.90
36352;DHT22;22382;44.768;17.206;2022-07-23T02:19:08;21.30;99.90
36352;DHT22;22382;44.768;17.206;2022-07-23T02:21:35;21.30;99.90
36352;DHT22;22382;44.768;17.206;2022-07-23T02:24:03;21.30;99.90
36352;DHT22;22382;44.768;17.206;2022-07-23T02:26:30;21.30;99.90
36352;DHT22;22382;44.768;17.206;2022-07-23T02:28:59;21.30;99.90
36352;DHT22;22382;44.768;17.206;2022-07-23T02:31:26;21.30;99.90
36352;DHT22;22382;44.768;17.206;2022-07-23T02:33:53;21.30;99.90
36352;DHT22;22382;44.768;17.206;2022-07-23T02:36:21;21.20;99.90
36352;DHT22;22382;44.768;17.206;2022-07-23T02:38:48;21.20;99.90
36352;DHT22;22382;44.768;17.206;2022-07-23T02:41:15;21.20;99.90
36352;DHT22;22382;44.768;17.206;2022-07-23T02:43:42;21.30;99.90
36352;DHT22;22382;44.768;17.206;2022-07-23T02:46:09;21.20;99.90
36352;DHT22;22382;44.768;17.206;2022-07-23T02:48:36;21.20;99.90
36352;DHT22;22382;44.768;17.206;2022-07-23T02:51:03;21.20;99.90
36352;DHT22;22382;44.768;17.206;2022-07-23T02:53:35;21.20;99.90
36352;DHT22;22382;44.768;17.206;2022-07-23T02:56:03;21.20;99.90
36352;DHT22;22382;44.768;17.206;2022-07-23T02:58:30;21.20;99.90
36352;DHT22;22382;44.768;17.206;2022-07-23T03:00:57;21.20;99.90
36352;DHT22;22382;44.768;17.206;2022-07-23T03:03:24;21.10;99.90
36352;DHT22;22382;44.768;17.206;2022-07-23T03:05:55;21.10;99.90
36352;DHT22;22382;44.768;17.206;2022-07-23T03:08:22;21.10;99.90
36352;DHT22;22382;44.768;17.206;2022-07-23T03:10:49;21.10;99.90
36352;DHT22;22382;44.768;17.206;2022-07-23T03:13:16;21.00;99.90
36352;DHT22;22382;44.768;17.206;2022-07-23T03:15:43;21.00;99.90
36352;DHT22;22382;44.768;17.206;2022-07-23T03:18:11;21.10;99.90
36352;DHT22;22382;44.768;17.206;2022-07-23T03:20:38;21.10;99.90
36352;DHT22;22382;44.768;17.206;2022-07-23T03:23:05;21.10;99.90
36352;DHT22;22382;44.768;17.206;2022-07-23T03:25:32;21.10;99.90
36352;DHT22;22382;44.768;17.206;2022-07-23T03:27:59;21.10;99.90
36352;DHT22;22382;44.768;17.206;2022-07-23T03:30:26;21.10;99.90
36352;DHT22;22382;44.768;17.206;2022-07-23T03:32:53;21.10;99.90
36352;DHT22;22382;44.768;17.206;2022-07-23T03:35:20;21.10;99.90
36352;DHT22;22382;44.768;17.206;2022-07-23T03:37:47;21.10;99.90
36352;DHT22;22382;44.768;17.206;2022-07-23T03:40:14;21.10;99.90
36352;DHT22;22382;44.768;17.206;2022-07-23T03:42:41;21.20;99.90
36352;DHT22;22382;44.768;17.206;2022-07-23T03:45:09;21.20;99.90
36352;DHT22;22382;44.768;17.206;2022-07-23T03:47:37;21.20;99.90
36352;DHT22;22382;44.768;17.206;2022-07-23T03:50:07;21.10;99.90
36352;DHT22;22382;44.768;17.206;2022-07-23T03:52:34;21.20;99.90
36352;DHT22;22382;44.768;17.206;2022-07-23T03:55:02;21.20;99.90
36352;DHT22;22382;44.768;17.206;2022-07-23T03:57:30;21.40;99.90
36352;DHT22;22382;44.768;17.206;2022-07-23T03:59:57;21.60;99.90
36352;DHT22;22382;44.768;17.206;2022-07-23T04:02:24;21.90;99.90
36352;DHT22;22382;44.768;17.206;2022-07-23T04:04:51;22.10;99.90
36352;DHT22;22382;44.768;17.206;2022-07-23T04:07:18;22.30;99.90
36352;DHT22;22382;44.768;17.206;2022-07-23T04:09:45;22.60;99.90
36352;DHT22;22382;44.768;17.206;2022-07-23T04:12:12;22.80;99.90
36352;DHT22;22382;44.768;17.206;2022-07-23T04:14:39;23.00;99.90
36352;DHT22;22382;44.768;17.206;2022-07-23T04:17:07;23.20;99.30
36352;DHT22;22382;44.768;17.206;2022-07-23T04:19:33;23.30;98.20
36352;DHT22;22382;44.768;17.206;2022-07-23T04:22:03;23.20;97.00
36352;DHT22;22382;44.768;17.206;2022-07-23T04:24:29;23.30;97.30
36352;DHT22;22382;44.768;17.206;2022-07-23T04:26:57;23.30;97.00
36352;DHT22;22382;44.768;17.206;2022-07-23T04:29:24;23.40;97.20
36352;DHT22;22382;44.768;17.206;2022-07-23T04:31:51;23.70;96.20
36352;DHT22;22382;44.768;17.206;2022-07-23T04:34:18;24.00;95.30
36352;DHT22;22382;44.768;17.206;2022-07-23T04:36:46;24.20;93.40
36352;DHT22;22382;44.768;17.206;2022-07-23T04:39:13;24.40;92.30
36352;DHT22;22382;44.768;17.206;2022-07-23T04:41:40;24.60;90.70
36352;DHT22;22382;44.768;17.206;2022-07-23T04:44:07;24.90;89.10
36352;DHT22;22382;44.768;17.206;2022-07-23T04:46:34;24.70;87.80
36352;DHT22;22382;44.768;17.206;2022-07-23T04:49:01;24.90;87.70
36352;DHT22;22382;44.768;17.206;2022-07-23T04:51:29;25.30;86.20
36352;DHT22;22382;44.768;17.206;2022-07-23T04:53:56;25.60;83.10
36352;DHT22;22382;44.768;17.206;2022-07-23T04:56:23;25.90;81.90
36352;DHT22;22382;44.768;17.206;2022-07-23T04:58:50;26.00;80.30
36352;DHT22;22382;44.768;17.206;2022-07-23T05:01:17;26.20;78.40
36352;DHT22;22382;44.768;17.206;2022-07-23T05:03:44;26.40;77.00
36352;DHT22;22382;44.768;17.206;2022-07-23T05:06:11;26.50;75.90
36352;DHT22;22382;44.768;17.206;2022-07-23T05:08:38;26.60;74.90
36352;DHT22;22382;44.768;17.206;2022-07-23T05:11:05;26.80;72.90
36352;DHT22;22382;44.768;17.206;2022-07-23T05:13:32;26.90;72.70
36352;DHT22;22382;44.768;17.206;2022-07-23T05:15:59;27.00;71.60
36352;DHT22;22382;44.768;17.206;2022-07-23T05:18:26;27.20;71.00
36352;DHT22;22382;44.768;17.206;2022-07-23T05:20:53;27.20;70.50
36352;DHT22;22382;44.768;17.206;2022-07-23T05:23:20;27.30;69.30
36352;DHT22;22382;44.768;17.206;2022-07-23T05:25:47;27.40;67.90
36352;DHT22;22382;44.768;17.206;2022-07-23T05:28:14;27.60;67.80
36352;DHT22;22382;44.768;17.206;2022-07-23T05:30:43;27.50;68.20
36352;DHT22;22382;44.768;17.206;2022-07-23T05:33:10;27.60;67.80
36352;DHT22;22382;44.768;17.206;2022-07-23T05:35:37;27.10;68.00
36352;DHT22;22382;44.768;17.206;2022-07-23T05:38:04;27.20;68.40
36352;DHT22;22382;44.768;17.206;2022-07-23T05:40:31;27.30;68.70
36352;DHT22;22382;44.768;17.206;2022-07-23T05:42:59;27.50;68.30
36352;DHT22;22382;44.768;17.206;2022-07-23T05:45:26;27.40;68.40
36352;DHT22;22382;44.768;17.206;2022-07-23T05:47:53;27.50;68.00
36352;DHT22;22382;44.768;17.206;2022-07-23T05:50:20;27.60;67.70
36352;DHT22;22382;44.768;17.206;2022-07-23T05:52:47;27.80;68.50
36352;DHT22;22382;44.768;17.206;2022-07-23T05:55:14;28.20;67.00
36352;DHT22;22382;44.768;17.206;2022-07-23T05:57:41;28.20;65.50
36352;DHT22;22382;44.768;17.206;2022-07-23T06:00:09;28.20;65.70
36352;DHT22;22382;44.768;17.206;2022-07-23T06:02:38;28.50;64.60
36352;DHT22;22382;44.768;17.206;2022-07-23T06:05:06;28.60;63.20
36352;DHT22;22382;44.768;17.206;2022-07-23T06:07:35;28.40;63.00
36352;DHT22;22382;44.768;17.206;2022-07-23T06:10:03;28.40;62.90
36352;DHT22;22382;44.768;17.206;2022-07-23T06:12:31;28.60;62.70
36352;DHT22;22382;44.768;17.206;2022-07-23T06:14:58;29.00;62.30
36352;DHT22;22382;44.768;17.206;2022-07-23T06:17:25;29.10;61.70
36352;DHT22;22382;44.768;17.206;2022-07-23T06:19:53;28.90;62.40
36352;DHT22;22382;44.768;17.206;2022-07-23T06:22:20;28.90;62.60
36352;DHT22;22382;44.768;17.206;2022-07-23T06:24:48;28.80;63.00
36352;DHT22;22382;44.768;17.206;2022-07-23T06:27:15;28.90;63.30
36352;DHT22;22382;44.768;17.206;2022-07-23T06:29:47;29.20;61.70
36352;DHT22;22382;44.768;17.206;2022-07-23T06:32:14;29.50;61.20
36352;DHT22;22382;44.768;17.206;2022-07-23T06:34:41;29.80;60.30
36352;DHT22;22382;44.768;17.206;2022-07-23T06:37:14;29.80;60.30
36352;DHT22;22382;44.768;17.206;2022-07-23T06:39:41;30.00;59.60
36352;DHT22;22382;44.768;17.206;2022-07-23T06:42:09;30.10;59.30
36352;DHT22;22382;44.768;17.206;2022-07-23T06:44:37;30.00;59.20
36352;DHT22;22382;44.768;17.206;2022-07-23T06:47:04;30.40;58.80
36352;DHT22;22382;44.768;17.206;2022-07-23T06:49:31;30.40;58.10
36352;DHT22;22382;44.768;17.206;2022-07-23T06:51:58;29.80;58.80
36352;DHT22;22382;44.768;17.206;2022-07-23T06:54:25;30.10;58.90
36352;DHT22;22382;44.768;17.206;2022-07-23T06:56:52;30.30;58.40
36352;DHT22;22382;44.768;17.206;2022-07-23T06:59:19;30.40;58.10
36352;DHT22;22382;44.768;17.206;2022-07-23T07:01:46;30.60;57.50
36352;DHT22;22382;44.768;17.206;2022-07-23T07:04:13;31.20;56.00
36352;DHT22;22382;44.768;17.206;2022-07-23T07:06:40;30.70;55.70
36352;DHT22;22382;44.768;17.206;2022-07-23T07:09:07;31.00;55.30
36352;DHT22;22382;44.768;17.206;2022-07-23T07:11:34;31.00;54.60
36352;DHT22;22382;44.768;17.206;2022-07-23T07:14:01;31.20;53.90
36352;DHT22;22382;44.768;17.206;2022-07-23T07:16:28;31.10;54.30
36352;DHT22;22382;44.768;17.206;2022-07-23T07:18:58;31.20;54.50
36352;DHT22;22382;44.768;17.206;2022-07-23T07:21:26;31.30;54.70
36352;DHT22;22382;44.768;17.206;2022-07-23T07:23:53;31.50;54.50
36352;DHT22;22382;44.768;17.206;2022-07-23T07:26:20;31.90;53.40
36352;DHT22;22382;44.768;17.206;2022-07-23T07:28:47;31.60;53.50
36352;DHT22;22382;44.768;17.206;2022-07-23T07:31:14;31.90;53.10
36352;DHT22;22382;44.768;17.206;2022-07-23T07:33:41;31.80;53.10
36352;DHT22;22382;44.768;17.206;2022-07-23T07:36:08;32.10;52.80
36352;DHT22;22382;44.768;17.206;2022-07-23T07:38:36;32.50;52.00
36352;DHT22;22382;44.768;17.206;2022-07-23T07:41:03;32.60;52.20
36352;DHT22;22382;44.768;17.206;2022-07-23T07:43:29;32.60;52.30
36352;DHT22;22382;44.768;17.206;2022-07-23T07:45:56;32.60;51.70
36352;DHT22;22382;44.768;17.206;2022-07-23T07:48:23;32.60;52.10
36352;DHT22;22382;44.768;17.206;2022-07-23T07:50:51;32.50;51.90
36352;DHT22;22382;44.768;17.206;2022-07-23T07:53:18;32.70;51.50
36352;DHT22;22382;44.768;17.206;2022-07-23T07:55:45;33.00;51.30
36352;DHT22;22382;44.768;17.206;2022-07-23T07:58:17;32.90;51.70
36352;DHT22;22382;44.768;17.206;2022-07-23T08:00:44;32.90;51.20
36352;DHT22;22382;44.768;17.206;2022-07-23T08:03:11;33.00;51.00
36352;DHT22;22382;44.768;17.206;2022-07-23T08:05:39;33.10;50.80
36352;DHT22;22382;44.768;17.206;2022-07-23T08:08:06;33.20;50.40
36352;DHT22;22382;44.768;17.206;2022-07-23T08:10:36;33.00;50.40
36352;DHT22;22382;44.768;17.206;2022-07-23T08:13:03;33.10;50.60
36352;DHT22;22382;44.768;17.206;2022-07-23T08:15:30;33.20;50.50
36352;DHT22;22382;44.768;17.206;2022-07-23T08:17:59;33.00;51.40
36352;DHT22;22382;44.768;17.206;2022-07-23T08:20:26;33.20;50.70
36352;DHT22;22382;44.768;17.206;2022-07-23T08:27:50;33.80;49.40
36352;DHT22;22382;44.768;17.206;2022-07-23T08:30:18;33.90;49.20
36352;DHT22;22382;44.768;17.206;2022-07-23T08:32:49;33.90;48.80
36352;DHT22;22382;44.768;17.206;2022-07-23T08:35:17;33.90;48.70
36352;DHT22;22382;44.768;17.206;2022-07-23T08:37:44;33.80;48.80
36352;DHT22;22382;44.768;17.206;2022-07-23T08:40:12;33.90;48.00
36352;DHT22;22382;44.768;17.206;2022-07-23T08:42:39;34.30;46.50
36352;DHT22;22382;44.768;17.206;2022-07-23T08:45:08;34.60;46.90
36352;DHT22;22382;44.768;17.206;2022-07-23T08:47:37;34.70;46.40
36352;DHT22;22382;44.768;17.206;2022-07-23T08:50:05;34.40;47.20
36352;DHT22;22382;44.768;17.206;2022-07-23T08:52:34;34.40;47.80
36352;DHT22;22382;44.768;17.206;2022-07-23T08:55:03;34.60;46.10
36352;DHT22;22382;44.768;17.206;2022-07-23T08:57:30;34.80;45.40
36352;DHT22;22382;44.768;17.206;2022-07-23T08:59:57;35.10;45.30
36352;DHT22;22382;44.768;17.206;2022-07-23T09:02:24;35.20;45.50
36352;DHT22;22382;44.768;17.206;2022-07-23T09:04:52;35.20;45.80
36352;DHT22;22382;44.768;17.206;2022-07-23T09:07:19;34.90;45.90
36352;DHT22;22382;44.768;17.206;2022-07-23T09:09:46;35.00;45.70
36352;DHT22;22382;44.768;17.206;2022-07-23T09:12:13;35.30;45.20
36352;DHT22;22382;44.768;17.206;2022-07-23T09:14:43;35.40;45.20
36352;DHT22;22382;44.768;17.206;2022-07-23T09:17:13;35.50;45.30
36352;DHT22;22382;44.768;17.206;2022-07-23T09:19:41;35.40;45.70
36352;DHT22;22382;44.768;17.206;2022-07-23T09:22:21;35.50;45.70
36352;DHT22;22382;44.768;17.206;2022-07-23T09:25:06;35.30;46.10
36352;DHT22;22382;44.768;17.206;2022-07-23T09:30:28;35.40;45.60
36352;DHT22;22382;44.768;17.206;2022-07-23T09:33:11;35.40;44.60
36352;DHT22;22382;44.768;17.206;2022-07-23T09:35:53;35.50;44.40
36352;DHT22;22382;44.768;17.206;2022-07-23T09:38:20;35.70;44.10
36352;DHT22;22382;44.768;17.206;2022-07-23T09:41:08;35.70;44.10
36352;DHT22;22382;44.768;17.206;2022-07-23T09:43:35;35.70;43.90
36352;DHT22;22382;44.768;17.206;2022-07-23T09:46:26;35.70;44.60
36352;DHT22;22382;44.768;17.206;2022-07-23T09:48:54;35.60;45.30
36352;DHT22;22382;44.768;17.206;2022-07-23T09:51:24;35.60;45.40
36352;DHT22;22382;44.768;17.206;2022-07-23T09:54:04;35.50;45.20
36352;DHT22;22382;44.768;17.206;2022-07-23T09:56:33;35.40;45.10
36352;DHT22;22382;44.768;17.206;2022-07-23T09:59:02;35.40;44.90
36352;DHT22;22382;44.768;17.206;2022-07-23T10:01:38;35.30;44.80
36352;DHT22;22382;44.768;17.206;2022-07-23T10:04:07;35.30;44.50
36352;DHT22;22382;44.768;17.206;2022-07-23T10:06:34;35.20;44.60
36352;DHT22;22382;44.768;17.206;2022-07-23T10:09:02;35.20;44.30
36352;DHT22;22382;44.768;17.206;2022-07-23T10:11:30;35.20;44.00
36352;DHT22;22382;44.768;17.206;2022-07-23T10:13:58;35.30;44.00
36352;DHT22;22382;44.768;17.206;2022-07-23T10:16:27;35.40;43.60
36352;DHT22;22382;44.768;17.206;2022-07-23T10:18:55;35.70;44.00
36352;DHT22;22382;44.768;17.206;2022-07-23T10:21:37;35.70;44.60
36352;DHT22;22382;44.768;17.206;2022-07-23T10:24:17;35.70;44.60
36352;DHT22;22382;44.768;17.206;2022-07-23T10:26:58;35.70;43.90
36352;DHT22;22382;44.768;17.206;2022-07-23T10:29:50;35.70;43.70
36352;DHT22;22382;44.768;17.206;2022-07-23T10:32:36;35.70;43.50
36352;DHT22;22382;44.768;17.206;2022-07-23T10:37:47;35.90;42.50
36352;DHT22;22382;44.768;17.206;2022-07-23T10:40:18;35.90;42.90
36352;DHT22;22382;44.768;17.206;2022-07-23T10:42:45;36.00;43.50
36352;DHT22;22382;44.768;17.206;2022-07-23T10:45:23;36.20;42.90
36352;DHT22;22382;44.768;17.206;2022-07-23T10:47:50;36.40;41.70
36352;DHT22;22382;44.768;17.206;2022-07-23T10:58:05;36.60;41.10
36352;DHT22;22382;44.768;17.206;2022-07-23T11:00:33;36.70;41.20
36352;DHT22;22382;44.768;17.206;2022-07-23T11:03:27;36.70;42.00
36352;DHT22;22382;44.768;17.206;2022-07-23T11:05:51;37.00;41.70
36352;DHT22;22382;44.768;17.206;2022-07-23T11:08:19;36.80;42.00
36352;DHT22;22382;44.768;17.206;2022-07-23T11:13:47;36.30;42.00
36352;DHT22;22382;44.768;17.206;2022-07-23T11:16:19;36.40;42.50
36352;DHT22;22382;44.768;17.206;2022-07-23T11:26:47;36.70;43.00
36352;DHT22;22382;44.768;17.206;2022-07-23T11:32:05;36.50;42.60
36352;DHT22;22382;44.768;17.206;2022-07-23T11:37:02;36.80;42.60
36352;DHT22;22382;44.768;17.206;2022-07-23T11:39:30;36.90;42.20
36352;DHT22;22382;44.768;17.206;2022-07-23T11:41:58;36.90;42.90
36352;DHT22;22382;44.768;17.206;2022-07-23T11:44:27;36.90;42.10
36352;DHT22;22382;44.768;17.206;2022-07-23T11:46:58;36.90;42.20
36352;DHT22;22382;44.768;17.206;2022-07-23T11:49:26;37.00;42.80
36352;DHT22;22382;44.768;17.206;2022-07-23T11:52:23;37.10;42.40
36352;DHT22;22382;44.768;17.206;2022-07-23T11:55:02;36.90;42.20
36352;DHT22;22382;44.768;17.206;2022-07-23T11:57:34;37.10;42.60
36352;DHT22;22382;44.768;17.206;2022-07-23T12:00:42;37.20;42.00
36352;DHT22;22382;44.768;17.206;2022-07-23T12:03:06;37.30;41.70
36352;DHT22;22382;44.768;17.206;2022-07-23T12:05:35;37.30;41.30
36352;DHT22;22382;44.768;17.206;2022-07-23T12:08:05;37.30;40.80
36352;DHT22;22382;44.768;17.206;2022-07-23T12:10:41;37.40;40.60
36352;DHT22;22382;44.768;17.206;2022-07-23T12:13:14;37.40;39.90
36352;DHT22;22382;44.768;17.206;2022-07-23T12:15:44;37.40;39.20
36352;DHT22;22382;44.768;17.206;2022-07-23T12:18:14;37.20;39.40
36352;DHT22;22382;44.768;17.206;2022-07-23T12:20:51;37.00;40.80
36352;DHT22;22382;44.768;17.206;2022-07-23T12:23:20;37.00;40.30
36352;DHT22;22382;44.768;17.206;2022-07-23T12:25:49;37.20;40.40
36352;DHT22;22382;44.768;17.206;2022-07-23T12:28:28;37.00;40.20
36352;DHT22;22382;44.768;17.206;2022-07-23T12:30:57;37.30;39.60
36352;DHT22;22382;44.768;17.206;2022-07-23T12:33:29;37.50;39.20
36352;DHT22;22382;44.768;17.206;2022-07-23T12:35:59;37.50;39.60
36352;DHT22;22382;44.768;17.206;2022-07-23T12:38:29;37.60;40.10
36352;DHT22;22382;44.768;17.206;2022-07-23T12:41:02;37.50;40.10
36352;DHT22;22382;44.768;17.206;2022-07-23T12:43:33;37.60;39.40
36352;DHT22;22382;44.768;17.206;2022-07-23T12:46:15;37.80;39.20
36352;DHT22;22382;44.768;17.206;2022-07-23T12:51:23;37.50;39.00
36352;DHT22;22382;44.768;17.206;2022-07-23T12:53:57;37.60;38.70
36352;DHT22;22382;44.768;17.206;2022-07-23T12:56:33;37.70;38.30
36352;DHT22;22382;44.768;17.206;2022-07-23T13:01:32;38.00;38.20
36352;DHT22;22382;44.768;17.206;2022-07-23T13:06:36;37.50;38.20
36352;DHT22;22382;44.768;17.206;2022-07-23T13:09:08;37.60;38.60
36352;DHT22;22382;44.768;17.206;2022-07-23T13:11:35;37.80;38.30
36352;DHT22;22382;44.768;17.206;2022-07-23T13:14:03;38.00;38.60
36352;DHT22;22382;44.768;17.206;2022-07-23T13:16:32;38.20;38.10
36352;DHT22;22382;44.768;17.206;2022-07-23T13:19:00;38.20;38.30
36352;DHT22;22382;44.768;17.206;2022-07-23T13:21:29;38.10;38.40
36352;DHT22;22382;44.768;17.206;2022-07-23T13:23:56;37.80;38.00
36352;DHT22;22382;44.768;17.206;2022-07-23T13:26:24;37.70;38.50
36352;DHT22;22382;44.768;17.206;2022-07-23T13:28:52;37.90;38.10
36352;DHT22;22382;44.768;17.206;2022-07-23T13:31:19;38.00;38.10
36352;DHT22;22382;44.768;17.206;2022-07-23T13:33:47;38.00;37.90
36352;DHT22;22382;44.768;17.206;2022-07-23T13:36:15;38.20;37.60
36352;DHT22;22382;44.768;17.206;2022-07-23T13:38:42;38.40;37.50
36352;DHT22;22382;44.768;17.206;2022-07-23T13:41:10;38.40;37.60
36352;DHT22;22382;44.768;17.206;2022-07-23T13:43:38;38.00;38.30
36352;DHT22;22382;44.768;17.206;2022-07-23T13:46:06;37.90;37.90
36352;DHT22;22382;44.768;17.206;2022-07-23T13:48:34;38.10;38.40
36352;DHT22;22382;44.768;17.206;2022-07-23T13:51:01;38.30;38.10
36352;DHT22;22382;44.768;17.206;2022-07-23T13:53:28;38.30;37.20
36352;DHT22;22382;44.768;17.206;2022-07-23T13:55:55;38.40;37.90
36352;DHT22;22382;44.768;17.206;2022-07-23T13:58:23;38.60;36.80
36352;DHT22;22382;44.768;17.206;2022-07-23T14:00:52;38.50;37.30
36352;DHT22;22382;44.768;17.206;2022-07-23T14:03:21;38.50;37.30
36352;DHT22;22382;44.768;17.206;2022-07-23T14:05:53;38.70;36.20
36352;DHT22;22382;44.768;17.206;2022-07-23T14:08:23;38.70;36.10
36352;DHT22;22382;44.768;17.206;2022-07-23T14:10:50;39.00;36.00
36352;DHT22;22382;44.768;17.206;2022-07-23T14:13:17;38.90;35.80
36352;DHT22;22382;44.768;17.206;2022-07-23T14:15:47;38.90;35.50
36352;DHT22;22382;44.768;17.206;2022-07-23T14:18:16;38.80;35.80
36352;DHT22;22382;44.768;17.206;2022-07-23T14:20:43;38.60;35.70
36352;DHT22;22382;44.768;17.206;2022-07-23T14:23:10;38.50;35.50
36352;DHT22;22382;44.768;17.206;2022-07-23T14:25:39;38.60;35.60
36352;DHT22;22382;44.768;17.206;2022-07-23T14:28:06;38.60;35.80
36352;DHT22;22382;44.768;17.206;2022-07-23T14:30:34;38.70;35.10
36352;DHT22;22382;44.768;17.206;2022-07-23T14:33:02;38.90;35.70
36352;DHT22;22382;44.768;17.206;2022-07-23T14:35:29;38.80;35.10
36352;DHT22;22382;44.768;17.206;2022-07-23T14:37:56;38.80;36.20
36352;DHT22;22382;44.768;17.206;2022-07-23T14:40:23;38.60;35.00
36352;DHT22;22382;44.768;17.206;2022-07-23T14:42:51;38.40;35.40
36352;DHT22;22382;44.768;17.206;2022-07-23T14:45:19;38.50;35.30
36352;DHT22;22382;44.768;17.206;2022-07-23T14:47:47;38.50;35.30
36352;DHT22;22382;44.768;17.206;2022-07-23T14:50:15;38.50;35.20
36352;DHT22;22382;44.768;17.206;2022-07-23T14:52:43;38.40;35.30
36352;DHT22;22382;44.768;17.206;2022-07-23T14:55:10;38.40;35.20
36352;DHT22;22382;44.768;17.206;2022-07-23T14:57:37;38.30;35.00
36352;DHT22;22382;44.768;17.206;2022-07-23T15:00:04;38.40;35.00
36352;DHT22;22382;44.768;17.206;2022-07-23T15:02:35;39.40;34.60
36352;DHT22;22382;44.768;17.206;2022-07-23T15:05:02;41.40;33.70
36352;DHT22;22382;44.768;17.206;2022-07-23T15:07:32;42.80;32.90
36352;DHT22;22382;44.768;17.206;2022-07-23T15:10:00;42.80;32.20
36352;DHT22;22382;44.768;17.206;2022-07-23T15:12:28;43.00;31.80
36352;DHT22;22382;44.768;17.206;2022-07-23T15:14:55;44.20;31.20
36352;DHT22;22382;44.768;17.206;2022-07-23T15:17:22;44.40;30.80
36352;DHT22;22382;44.768;17.206;2022-07-23T15:19:52;44.10;31.20
36352;DHT22;22382;44.768;17.206;2022-07-23T15:22:19;43.70;30.70
36352;DHT22;22382;44.768;17.206;2022-07-23T15:24:47;43.60;30.50
36352;DHT22;22382;44.768;17.206;2022-07-23T15:27:14;42.60;30.70
36352;DHT22;22382;44.768;17.206;2022-07-23T15:29:45;42.40;31.10
36352;DHT22;22382;44.768;17.206;2022-07-23T15:32:12;42.80;30.90
36352;DHT22;22382;44.768;17.206;2022-07-23T15:34:39;42.70;30.60
36352;DHT22;22382;44.768;17.206;2022-07-23T15:37:06;42.80;31.10
36352;DHT22;22382;44.768;17.206;2022-07-23T15:39:39;43.50;30.00
36352;DHT22;22382;44.768;17.206;2022-07-23T15:42:07;43.10;30.10
36352;DHT22;22382;44.768;17.206;2022-07-23T15:44:40;42.60;30.70
36352;DHT22;22382;44.768;17.206;2022-07-23T15:47:11;42.10;31.30
36352;DHT22;22382;44.768;17.206;2022-07-23T15:49:39;42.10;31.30
36352;DHT22;22382;44.768;17.206;2022-07-23T15:52:06;41.80;31.50
36352;DHT22;22382;44.768;17.206;2022-07-23T15:54:34;41.60;32.00
36352;DHT22;22382;44.768;17.206;2022-07-23T15:57:01;41.30;31.70
36352;DHT22;22382;44.768;17.206;2022-07-23T15:59:32;40.90;31.60
36352;DHT22;22382;44.768;17.206;2022-07-23T16:02:00;40.30;32.10
36352;DHT22;22382;44.768;17.206;2022-07-23T16:04:27;39.70;32.40
36352;DHT22;22382;44.768;17.206;2022-07-23T16:06:55;39.10;33.00